createdAt,value
2022-10-19T00:00:22.279Z,30.60
2022-10-19T00:03:00.695Z,31.20
2022-10-19T00:05:38.360Z,32.60
2022-10-19T00:08:15.951Z,33.40
2022-10-19T00:10:53.831Z,34.30
2022-10-19T00:13:31.217Z,33.70
2022-10-19T00:16:12.669Z,29.40
2022-10-19T00:18:48.477Z,31.20
2022-10-19T00:21:25.475Z,32.60
2022-10-19T00:24:02.416Z,37.20
2022-10-19T00:26:39.072Z,33.90
2022-10-19T00:29:16.538Z,37.20
2022-10-19T00:31:54.694Z,35.80
2022-10-19T00:34:31.464Z,35.80
2022-10-19T00:37:08.047Z,37.80
2022-10-19T00:39:48.021Z,36.80
2022-10-19T00:42:24.245Z,43.70
2022-10-19T00:45:16.059Z,32.60
2022-10-19T00:47:53.522Z,37.50
2022-10-19T00:50:30.629Z,34.60
2022-10-19T00:53:07.049Z,40.30
2022-10-19T00:55:45.479Z,37.10
2022-10-19T00:58:21.958Z,39.80
2022-10-19T01:00:59.035Z,42.60
2022-10-19T01:03:37.059Z,43.00
2022-10-19T01:06:15.034Z,37.70
2022-10-19T01:08:52.515Z,38.60
2022-10-19T01:11:46.426Z,43.80
2022-10-19T01:14:40.549Z,42.00
2022-10-19T01:17:31.443Z,46.00
2022-10-19T01:20:56.557Z,40.10
2022-10-19T01:24:10.828Z,38.10
2022-10-19T01:27:22.783Z,42.20
2022-10-19T01:30:08.780Z,41.60
2022-10-19T01:33:37.605Z,42.30
2022-10-19T01:36:29.368Z,41.70
2022-10-19T01:39:15.758Z,42.40
2022-10-19T01:42:04.623Z,46.20
2022-10-19T01:44:49.649Z,43.80
2022-10-19T01:47:33.622Z,45.30
2022-10-19T01:50:16.250Z,48.10
2022-10-19T01:52:55.028Z,49.10
2022-10-19T01:55:32.552Z,45.00
2022-10-19T01:58:16.480Z,44.80
2022-10-19T02:00:57.344Z,47.70
2022-10-19T02:03:35.476Z,47.20
2022-10-19T02:06:16.033Z,46.80
2022-10-19T02:09:01.262Z,48.40
2022-10-19T02:11:40.072Z,48.30
2022-10-19T02:14:21.927Z,48.20
2022-10-19T02:17:03.324Z,51.20
2022-10-19T02:19:40.966Z,58.40
2022-10-19T02:22:17.910Z,60.90
2022-10-19T02:24:54.015Z,59.60
2022-10-19T02:27:31.394Z,58.50
2022-10-19T02:30:10.169Z,51.40
2022-10-19T02:32:46.682Z,57.70
2022-10-19T02:35:23.358Z,57.80
2022-10-19T02:38:02.511Z,53.40
2022-10-19T02:40:44.828Z,51.20
2022-10-19T02:43:24.989Z,53.30
2022-10-19T02:46:08.077Z,51.80
2022-10-19T02:48:46.226Z,49.40
2022-10-19T02:51:41.157Z,48.10
2022-10-19T02:54:17.255Z,49.00
2022-10-19T02:56:53.731Z,47.40
2022-10-19T02:59:29.786Z,48.80
2022-10-19T03:02:06.589Z,44.90
2022-10-19T03:04:43.219Z,45.40
2022-10-19T03:07:21.947Z,44.40
2022-10-19T03:09:57.951Z,48.30
2022-10-19T03:12:34.966Z,45.90
2022-10-19T03:15:18.164Z,48.50
2022-10-19T03:17:58.036Z,45.60
2022-10-19T03:20:34.455Z,46.30
2022-10-19T03:23:11.286Z,47.80
2022-10-19T03:25:48.196Z,52.70
2022-10-19T03:28:26.283Z,52.20
2022-10-19T03:31:02.114Z,57.50
2022-10-19T03:33:38.626Z,54.70
2022-10-19T03:36:30.437Z,59.20
2022-10-19T03:39:10.211Z,58.10
2022-10-19T03:41:46.639Z,50.50
2022-10-19T03:44:22.365Z,48.60
2022-10-19T03:46:57.886Z,50.10
2022-10-19T03:49:38.052Z,50.40
2022-10-19T03:52:17.256Z,50.90
2022-10-19T03:54:53.981Z,53.60
2022-10-19T03:57:30.834Z,49.20
2022-10-19T04:00:06.775Z,49.70
2022-10-19T04:02:47.874Z,53.70
2022-10-19T04:05:24.608Z,54.00
2022-10-19T04:08:01.076Z,55.90
2022-10-19T04:10:37.725Z,53.30
2022-10-19T04:13:14.145Z,48.80
2022-10-19T04:15:50.121Z,50.80
2022-10-19T04:18:26.576Z,48.10
2022-10-19T04:21:08.170Z,50.70
2022-10-19T04:23:45.196Z,45.40
2022-10-19T04:26:21.384Z,50.70
2022-10-19T04:28:59.348Z,51.10
2022-10-19T04:31:36.491Z,51.60
2022-10-19T04:34:11.835Z,52.70
2022-10-19T04:36:48.387Z,57.40
2022-10-19T04:39:25.741Z,58.00
2022-10-19T04:42:02.547Z,55.40
2022-10-19T04:44:37.581Z,53.80
2022-10-19T04:47:13.977Z,48.20
2022-10-19T04:49:49.863Z,48.80
2022-10-19T04:52:26.759Z,53.30
2022-10-19T04:55:03.728Z,56.80
2022-10-19T04:57:40.636Z,59.00
2022-10-19T05:00:22.984Z,56.80
2022-10-19T05:02:59.484Z,60.70
2022-10-19T05:05:36.590Z,56.90
2022-10-19T05:08:13.543Z,50.90
2022-10-19T05:10:50.300Z,56.60
2022-10-19T05:13:26.939Z,56.00
2022-10-19T05:16:10.859Z,49.90
2022-10-19T05:18:48.998Z,55.30
2022-10-19T05:21:26.078Z,55.70
2022-10-19T05:24:02.936Z,60.50
2022-10-19T05:26:38.926Z,52.20
2022-10-19T05:29:18.377Z,56.50
2022-10-19T05:31:54.688Z,54.10
2022-10-19T05:34:31.641Z,54.50
2022-10-19T05:37:07.851Z,56.70
2022-10-19T05:39:44.770Z,51.20
2022-10-19T05:42:21.481Z,49.90
2022-10-19T05:44:58.016Z,56.50
2022-10-19T05:47:35.806Z,49.40
2022-10-19T05:50:14.220Z,51.00
2022-10-19T05:52:50.424Z,44.80
2022-10-19T05:55:26.899Z,46.60
2022-10-19T05:58:02.686Z,41.30
2022-10-19T06:00:39.014Z,46.70
2022-10-19T06:03:15.890Z,43.90
2022-10-19T06:05:52.841Z,43.10
2022-10-19T06:08:30.023Z,44.50
2022-10-19T06:11:15.477Z,46.20
2022-10-19T06:13:55.347Z,44.60
2022-10-19T06:16:33.227Z,48.40
2022-10-19T06:19:09.430Z,53.70
2022-10-19T06:21:47.047Z,51.10
2022-10-19T06:24:23.518Z,54.10
2022-10-19T06:26:59.953Z,49.60
2022-10-19T06:29:37.123Z,52.70
2022-10-19T06:32:14.006Z,48.30
2022-10-19T06:34:53.062Z,48.70
2022-10-19T06:37:32.050Z,50.40
2022-10-19T06:40:11.489Z,53.20
2022-10-19T06:42:48.899Z,57.00
2022-10-19T06:45:26.203Z,49.70
2022-10-19T06:48:07.633Z,61.00
2022-10-19T06:50:44.628Z,55.70
2022-10-19T06:53:21.564Z,50.40
2022-10-19T06:55:59.139Z,49.90
2022-10-19T06:58:37.252Z,52.90
2022-10-19T07:01:15.051Z,47.00
2022-10-19T07:03:52.450Z,49.90
2022-10-19T07:06:29.729Z,52.20
2022-10-19T07:09:05.826Z,51.30
2022-10-19T07:11:45.879Z,47.90
2022-10-19T07:14:24.803Z,51.40
2022-10-19T07:17:01.742Z,52.30
2022-10-19T07:19:38.060Z,58.80
2022-10-19T07:22:19.100Z,61.80
2022-10-19T07:24:58.403Z,68.00
2022-10-19T07:27:37.619Z,70.80
2022-10-19T07:30:17.240Z,66.40
2022-10-19T07:32:53.149Z,66.60
2022-10-19T07:35:30.358Z,66.50
2022-10-19T07:38:07.126Z,61.60
2022-10-19T07:40:46.417Z,66.00
2022-10-19T07:43:24.732Z,63.30
2022-10-19T07:46:08.066Z,59.20
2022-10-19T07:48:43.856Z,60.80
2022-10-19T07:51:21.226Z,62.50
2022-10-19T07:53:58.054Z,61.50
2022-10-19T07:56:35.033Z,59.50
2022-10-19T07:59:12.537Z,51.40
2022-10-19T08:01:49.744Z,52.00
2022-10-19T08:07:22.652Z,51.80
2022-10-19T08:09:59.409Z,53.10
2022-10-19T08:12:37.571Z,56.90
2022-10-19T08:15:16.719Z,48.90
2022-10-19T08:17:52.939Z,56.60
2022-10-19T08:20:29.814Z,57.20
2022-10-19T08:23:05.788Z,58.60
2022-10-19T08:25:42.320Z,59.10
2022-10-19T08:28:18.178Z,56.10
2022-10-19T08:30:58.360Z,65.20
2022-10-19T08:33:34.693Z,60.60
2022-10-19T08:36:15.625Z,62.00
2022-10-19T08:38:52.609Z,59.40
2022-10-19T08:41:40.627Z,60.00
2022-10-19T08:45:11.184Z,58.80
2022-10-19T08:48:15.599Z,62.00
2022-10-19T08:50:53.562Z,59.70
2022-10-19T08:53:48.297Z,63.80
2022-10-19T08:56:51.948Z,64.40
2022-10-19T08:59:42.681Z,65.30
2022-10-19T09:02:31.025Z,64.10
2022-10-19T09:05:21.759Z,64.40
2022-10-19T09:08:00.114Z,73.10
2022-10-19T09:10:39.323Z,58.90
2022-10-19T09:13:41.477Z,59.20
2022-10-19T09:16:29.697Z,59.30
2022-10-19T09:19:14.268Z,59.20
2022-10-19T09:21:56.432Z,60.30
2022-10-19T09:24:45.157Z,61.90
2022-10-19T09:27:29.299Z,67.50
2022-10-19T09:30:17.525Z,59.60
2022-10-19T09:33:00.738Z,61.90
2022-10-19T09:35:45.600Z,61.60
2022-10-19T09:38:23.691Z,61.20
2022-10-19T09:41:08.597Z,59.90
2022-10-19T09:43:53.700Z,66.90
2022-10-19T09:46:52.453Z,63.90
2022-10-19T09:49:48.670Z,66.30
2022-10-19T09:52:39.602Z,61.30
2022-10-19T09:55:41.133Z,58.80
2022-10-19T09:58:30.503Z,64.10
2022-10-19T10:01:09.692Z,64.10
2022-10-19T10:03:46.969Z,66.40
2022-10-19T10:06:26.557Z,59.20
2022-10-19T10:09:04.231Z,62.00
2022-10-19T10:11:42.528Z,66.30
2022-10-19T10:14:28.094Z,65.30
2022-10-19T10:17:07.627Z,62.10
2022-10-19T10:20:04.304Z,61.50
2022-10-19T10:22:41.828Z,66.40
2022-10-19T10:25:27.544Z,64.90
2022-10-19T10:28:19.670Z,62.70
2022-10-19T10:31:03.739Z,71.70
2022-10-19T10:33:45.682Z,70.10
2022-10-19T10:36:26.017Z,64.00
2022-10-19T10:39:10.713Z,68.50
2022-10-19T10:41:53.042Z,66.40
2022-10-19T10:44:31.869Z,69.00
2022-10-19T10:47:16.236Z,66.70
2022-10-19T10:50:02.932Z,68.30
2022-10-19T10:52:58.941Z,67.60
2022-10-19T10:55:37.842Z,66.70
2022-10-19T10:58:25.498Z,68.70
2022-10-19T11:01:07.622Z,66.30
2022-10-19T11:03:59.855Z,69.70
2022-10-19T11:06:44.620Z,66.00
2022-10-19T11:09:37.684Z,69.50
2022-10-19T11:12:18.463Z,68.90
2022-10-19T11:15:06.052Z,70.90
2022-10-19T11:18:03.538Z,72.10
2022-10-19T11:20:49.322Z,68.70
2022-10-19T11:23:39.780Z,69.80
2022-10-19T11:26:34.316Z,65.20
2022-10-19T11:29:39.942Z,71.00
2022-10-19T11:32:29.932Z,69.10
2022-10-19T11:35:33.929Z,67.30
2022-10-19T11:38:31.456Z,66.90
2022-10-19T11:41:35.440Z,70.00
2022-10-19T11:45:05.623Z,68.40
2022-10-19T11:48:09.730Z,68.20
2022-10-19T11:51:16.878Z,64.60
2022-10-19T11:54:21.943Z,69.50
2022-10-19T11:57:10.560Z,64.80
2022-10-19T12:00:15.137Z,67.50
2022-10-19T12:04:00.445Z,63.40
2022-10-19T12:06:48.719Z,63.00
2022-10-19T12:12:37.922Z,70.90
2022-10-19T12:15:35.968Z,67.90
2022-10-19T12:18:32.434Z,68.70
2022-10-19T12:21:15.771Z,65.80
2022-10-19T12:23:54.121Z,65.60
2022-10-19T12:26:33.950Z,67.90
2022-10-19T12:29:19.024Z,65.50
2022-10-19T12:31:56.563Z,69.30
2022-10-19T12:34:52.297Z,75.60
2022-10-19T12:37:42.256Z,67.90
2022-10-19T12:40:34.358Z,69.80
2022-10-19T12:43:22.072Z,65.40
2022-10-19T12:46:11.287Z,67.20
2022-10-19T12:48:47.437Z,63.80
2022-10-19T12:51:24.844Z,68.10
2022-10-19T12:54:15.341Z,68.30
2022-10-19T12:56:59.081Z,66.80
2022-10-19T12:59:38.593Z,69.50
2022-10-19T13:02:34.345Z,70.30
2022-10-19T13:05:23.607Z,64.70
2022-10-19T13:08:00.200Z,69.90
2022-10-19T13:10:38.007Z,74.00
2022-10-19T13:13:57.714Z,66.50
2022-10-19T13:17:06.005Z,68.40
2022-10-19T13:19:43.880Z,73.80
2022-10-19T13:22:35.171Z,67.70
2022-10-19T13:25:33.297Z,64.50
2022-10-19T13:28:39.897Z,61.50
2022-10-19T13:31:35.070Z,64.30
2022-10-19T13:34:20.202Z,63.80
2022-10-19T13:37:14.643Z,64.60
2022-10-19T13:39:52.547Z,62.20
2022-10-19T13:42:33.372Z,59.00
2022-10-19T13:45:24.694Z,57.40
2022-10-19T13:48:13.954Z,56.80
2022-10-19T13:50:57.773Z,60.30
2022-10-19T13:53:48.123Z,58.70
2022-10-19T13:56:54.846Z,54.90
2022-10-19T14:00:22.294Z,60.70
2022-10-19T14:03:19.983Z,57.90
2022-10-19T14:06:28.693Z,51.90
2022-10-19T14:10:03.687Z,52.20
2022-10-19T14:12:45.797Z,58.80
2022-10-19T14:15:39.163Z,54.40
2022-10-19T14:18:37.547Z,60.90
2022-10-19T14:21:15.370Z,52.50
2022-10-19T14:23:52.047Z,56.70
2022-10-19T14:26:32.712Z,51.60
2022-10-19T14:29:09.321Z,50.10
2022-10-19T14:31:46.026Z,57.00
2022-10-19T14:34:23.197Z,57.30
2022-10-19T14:36:59.069Z,49.80
2022-10-19T14:39:38.539Z,53.70
2022-10-19T14:42:17.154Z,49.30
2022-10-19T14:44:53.095Z,52.30
2022-10-19T14:47:30.474Z,52.80
2022-10-19T14:50:07.221Z,52.20
2022-10-19T14:52:45.580Z,51.60
2022-10-19T14:55:28.694Z,51.50
2022-10-19T14:58:06.984Z,53.90
2022-10-19T15:00:45.079Z,52.90
2022-10-19T15:03:31.105Z,58.00
2022-10-19T15:06:16.521Z,45.90
2022-10-19T15:08:58.294Z,48.90
2022-10-19T15:11:42.952Z,50.10
2022-10-19T15:14:24.478Z,49.20
2022-10-19T15:17:05.294Z,50.80
2022-10-19T15:19:47.824Z,51.50
2022-10-19T15:22:32.522Z,48.50
2022-10-19T15:25:30.036Z,51.20
2022-10-19T15:28:39.001Z,53.30
2022-10-19T15:31:29.212Z,55.70
2022-10-19T15:34:07.894Z,50.50
2022-10-19T15:36:58.426Z,47.30
2022-10-19T15:39:42.306Z,46.60
2022-10-19T15:42:41.347Z,51.30
2022-10-19T15:45:39.190Z,51.70
2022-10-19T15:48:50.073Z,49.30
2022-10-19T15:51:47.853Z,50.80
2022-10-19T15:54:25.874Z,49.20
2022-10-19T15:57:02.976Z,54.90
2022-10-19T15:59:39.101Z,50.20
2022-10-19T16:02:25.487Z,54.90
2022-10-19T16:05:02.273Z,47.60
2022-10-19T16:07:42.437Z,48.80
2022-10-19T16:10:24.375Z,48.70
2022-10-19T16:13:00.966Z,47.60
2022-10-19T16:15:37.719Z,50.10
2022-10-19T16:18:15.720Z,51.20
2022-10-19T16:20:52.445Z,54.30
2022-10-19T16:23:29.157Z,47.50
2022-10-19T16:26:05.689Z,49.50
2022-10-19T16:28:42.723Z,53.10
2022-10-19T16:31:19.922Z,49.10
2022-10-19T16:33:56.471Z,50.70
2022-10-19T16:36:32.343Z,48.70
2022-10-19T16:39:08.746Z,45.80
2022-10-19T16:41:46.228Z,46.60
2022-10-19T16:44:24.100Z,49.50
2022-10-19T16:47:02.560Z,47.90
2022-10-19T16:49:39.628Z,43.50
2022-10-19T16:52:17.601Z,52.00
2022-10-19T16:54:54.250Z,41.60
2022-10-19T16:57:30.585Z,46.10
2022-10-19T17:00:07.384Z,45.20
2022-10-19T17:02:45.804Z,44.70
2022-10-19T17:05:23.077Z,47.30
2022-10-19T17:07:59.704Z,42.30
2022-10-19T17:10:35.666Z,42.30
2022-10-19T17:13:11.670Z,40.60
2022-10-19T17:15:49.043Z,44.60
2022-10-19T17:18:25.789Z,38.80
2022-10-19T17:21:06.102Z,45.70
2022-10-19T17:23:41.193Z,40.90
2022-10-19T17:26:19.399Z,37.40
2022-10-19T17:28:55.696Z,39.80
2022-10-19T17:31:32.548Z,35.60
2022-10-19T17:34:09.445Z,41.00
2022-10-19T17:36:48.555Z,36.20
2022-10-19T17:39:29.141Z,32.40
2022-10-19T17:42:07.230Z,35.90
2022-10-19T17:44:43.624Z,28.00
2022-10-19T17:47:20.505Z,31.10
2022-10-19T17:49:57.125Z,31.40
2022-10-19T17:52:34.191Z,29.70
2022-10-19T17:55:13.300Z,30.10
2022-10-19T17:57:49.981Z,28.70
2022-10-19T18:00:26.541Z,31.60
2022-10-19T18:03:02.968Z,27.10
2022-10-19T18:05:40.841Z,25.30
2022-10-19T18:08:18.190Z,24.50
2022-10-19T18:10:59.008Z,20.40
2022-10-19T18:16:14.555Z,20.90
2022-10-19T18:18:52.176Z,25.20
2022-10-19T18:21:30.711Z,21.30
2022-10-19T18:24:12.750Z,21.30
2022-10-19T18:26:52.855Z,21.10
2022-10-19T18:29:31.118Z,19.40
2022-10-19T18:32:07.826Z,20.00
2022-10-19T18:34:44.012Z,17.30
2022-10-19T18:37:21.095Z,23.10
2022-10-19T18:39:57.244Z,16.20
2022-10-19T18:42:34.333Z,16.10
2022-10-19T18:45:15.181Z,15.40
2022-10-19T18:47:51.972Z,14.20
2022-10-19T18:50:28.573Z,15.70
2022-10-19T18:53:05.076Z,12.90
2022-10-19T18:55:41.561Z,15.00
2022-10-19T18:58:17.390Z,14.90
2022-10-19T19:00:53.355Z,12.70
2022-10-19T19:03:30.901Z,13.50
2022-10-19T19:06:09.392Z,13.10
2022-10-19T19:08:45.925Z,13.10
2022-10-19T19:11:24.811Z,9.70
2022-10-19T19:14:03.680Z,15.80
2022-10-19T19:16:42.820Z,11.90
2022-10-19T19:19:24.684Z,13.80
2022-10-19T19:22:07.835Z,11.70
2022-10-19T19:24:46.109Z,9.10
2022-10-19T19:27:27.254Z,10.00
2022-10-19T19:30:08.077Z,11.00
2022-10-19T19:32:44.433Z,11.70
2022-10-19T19:35:23.133Z,9.10
2022-10-19T19:37:59.637Z,9.20
2022-10-19T19:40:35.909Z,10.00
2022-10-19T19:43:12.025Z,12.30
2022-10-19T19:45:57.354Z,12.20
2022-10-19T19:48:34.065Z,8.90
2022-10-19T19:51:12.252Z,8.80
2022-10-19T19:53:49.758Z,10.90
2022-10-19T19:56:26.660Z,10.80
2022-10-19T19:59:05.095Z,10.40
2022-10-19T20:01:42.194Z,10.00
2022-10-19T20:04:18.218Z,9.80
2022-10-19T20:06:54.441Z,10.70
2022-10-19T20:09:31.538Z,11.60
2022-10-19T20:12:08.001Z,7.80
2022-10-19T20:14:44.524Z,7.90
2022-10-19T20:17:24.599Z,11.40
2022-10-19T20:20:00.601Z,10.40
2022-10-19T20:22:37.289Z,10.80
2022-10-19T20:25:16.408Z,11.60
2022-10-19T20:27:52.634Z,9.20
2022-10-19T20:30:29.438Z,9.70
2022-10-19T20:33:06.793Z,11.00
2022-10-19T20:35:45.086Z,9.30
2022-10-19T20:38:21.137Z,12.40
2022-10-19T20:40:57.703Z,11.20
2022-10-19T20:43:34.506Z,10.20
2022-10-19T20:46:13.753Z,11.30
2022-10-19T20:48:49.691Z,12.30
2022-10-19T20:51:32.014Z,10.60
2022-10-19T20:54:12.677Z,11.10
2022-10-19T20:56:49.921Z,11.60
2022-10-19T20:59:27.971Z,11.20
2022-10-19T21:02:04.146Z,8.90
2022-10-19T21:04:42.928Z,8.30
2022-10-19T21:07:19.499Z,10.50
2022-10-19T21:09:56.413Z,11.70
2022-10-19T21:12:33.521Z,11.90
2022-10-19T21:15:13.730Z,10.90
2022-10-19T21:17:51.836Z,10.60
2022-10-19T21:20:27.981Z,9.70
2022-10-19T21:23:06.024Z,11.30
2022-10-19T21:25:41.938Z,12.70
2022-10-19T21:28:18.001Z,14.70
2022-10-19T21:30:54.792Z,9.40
2022-10-19T21:33:32.584Z,12.90
2022-10-19T21:36:12.164Z,13.90
2022-10-19T21:38:49.314Z,15.30
2022-10-19T21:41:26.715Z,14.50
2022-10-19T21:44:03.466Z,13.10
2022-10-19T21:46:38.954Z,14.40
2022-10-19T21:49:15.990Z,13.70
2022-10-19T21:51:54.522Z,13.90
2022-10-19T21:54:31.209Z,14.20
2022-10-19T21:57:07.353Z,14.30
2022-10-19T21:59:43.822Z,15.20
2022-10-19T22:02:20.066Z,14.00
2022-10-19T22:04:56.687Z,13.40
2022-10-19T22:07:33.909Z,13.10
2022-10-19T22:10:11.976Z,18.00
2022-10-19T22:12:47.255Z,15.90
2022-10-19T22:15:24.515Z,13.40
2022-10-19T22:18:00.956Z,16.00
2022-10-19T22:20:37.369Z,17.10
2022-10-19T22:23:15.473Z,17.10
2022-10-19T22:25:52.331Z,21.80
2022-10-19T22:28:28.896Z,20.50
2022-10-19T22:31:05.882Z,16.30
2022-10-19T22:33:41.457Z,16.00
2022-10-19T22:36:19.121Z,21.30
2022-10-19T22:38:55.419Z,19.10
2022-10-19T22:42:38.806Z,17.50
2022-10-19T22:46:40.778Z,18.50
2022-10-19T22:50:43.802Z,18.10
2022-10-19T22:53:38.991Z,18.90
2022-10-19T22:56:17.273Z,19.90
2022-10-19T22:58:54.258Z,20.00
2022-10-19T23:01:30.790Z,20.50
2022-10-19T23:04:07.672Z,19.10
2022-10-19T23:06:43.660Z,21.50
2022-10-19T23:09:19.900Z,21.00
2022-10-19T23:11:56.246Z,19.20
2022-10-19T23:14:33.448Z,15.10
2022-10-19T23:17:09.861Z,27.10
2022-10-19T23:19:46.271Z,22.50
2022-10-19T23:22:21.834Z,18.40
2022-10-19T23:24:58.498Z,21.80
2022-10-19T23:27:35.176Z,19.20
2022-10-19T23:30:15.900Z,22.20
2022-10-19T23:32:52.151Z,19.00
2022-10-19T23:35:28.524Z,22.10
2022-10-19T23:38:04.899Z,22.80
2022-10-19T23:40:41.410Z,18.60
2022-10-19T23:43:17.522Z,22.40
2022-10-19T23:45:53.968Z,19.60
2022-10-19T23:48:30.270Z,21.10
2022-10-19T23:51:11.321Z,22.00
2022-10-19T23:53:49.151Z,21.70
2022-10-19T23:56:28.743Z,20.30
2022-10-19T23:59:05.414Z,19.20
